createdAt,value
2023-03-03T00:03:08.100Z,68.25
2023-03-03T00:10:10.973Z,68.54
2023-03-03T00:17:11.903Z,68.82
2023-03-03T00:24:17.546Z,69.43
2023-03-03T00:31:25.215Z,69.44
2023-03-03T00:37:59.862Z,69.27
2023-03-03T00:43:36.335Z,69.37
2023-03-03T00:49:58.151Z,69.57
2023-03-03T00:55:47.204Z,69.84
2023-03-03T01:01:26.188Z,70.19
2023-03-03T01:07:39.858Z,70.39
2023-03-03T01:14:17.571Z,70.12
2023-03-03T01:21:13.259Z,69.81
2023-03-03T01:28:16.071Z,69.58
2023-03-03T01:35:02.070Z,69.97
2023-03-03T01:41:48.383Z,70.20
2023-03-03T01:48:45.124Z,70.76
2023-03-03T01:55:53.715Z,71.07
2023-03-03T02:02:56.390Z,70.93
2023-03-03T02:09:50.736Z,70.79
2023-03-03T02:16:46.341Z,70.70
2023-03-03T02:24:05.116Z,70.58
2023-03-03T02:31:05.228Z,70.42
2023-03-03T02:38:05.395Z,70.78
2023-03-03T02:45:01.184Z,70.84
2023-03-03T02:51:56.429Z,71.23
2023-03-03T02:58:58.910Z,71.71
2023-03-03T03:05:39.699Z,71.74
2023-03-03T03:12:30.951Z,71.81
2023-03-03T03:19:24.063Z,71.46
2023-03-03T03:26:00.400Z,71.67
2023-03-03T03:32:55.150Z,71.83
2023-03-03T03:39:49.402Z,72.24
2023-03-03T03:46:42.085Z,72.30
2023-03-03T03:53:10.335Z,72.19
2023-03-03T03:59:34.660Z,71.97
2023-03-03T04:05:37.311Z,72.17
2023-03-03T04:12:04.560Z,72.54
2023-03-03T04:18:58.407Z,72.58
2023-03-03T04:25:36.645Z,72.46
2023-03-03T04:32:28.444Z,72.27
2023-03-03T04:39:04.633Z,72.23
2023-03-03T04:45:32.159Z,72.47
2023-03-03T04:52:18.588Z,72.54
2023-03-03T04:59:06.503Z,73.14
2023-03-03T05:06:09.279Z,72.73
2023-03-03T05:12:56.870Z,72.40
2023-03-03T05:18:25.301Z,72.66
2023-03-03T05:24:42.469Z,72.88
2023-03-03T05:31:46.373Z,73.10
2023-03-03T05:38:00.654Z,73.63
2023-03-03T05:44:17.099Z,73.88
2023-03-03T05:50:45.709Z,73.52
2023-03-03T05:57:17.449Z,73.39
2023-03-03T06:02:27.558Z,73.56
2023-03-03T06:08:40.422Z,73.18
2023-03-03T06:14:34.182Z,73.30
2023-03-03T06:19:36.621Z,73.48
2023-03-03T06:25:21.914Z,73.38
2023-03-03T06:30:55.879Z,73.32
2023-03-03T06:36:28.250Z,73.24
2023-03-03T06:42:29.521Z,73.31
2023-03-03T06:48:53.656Z,73.44
2023-03-03T06:55:20.762Z,73.73
2023-03-03T07:00:50.413Z,73.72
2023-03-03T07:05:53.111Z,73.57
2023-03-03T07:11:17.255Z,73.80
2023-03-03T07:17:04.514Z,73.98
2023-03-03T07:22:20.039Z,74.05
2023-03-03T07:27:33.866Z,74.02
2023-03-03T07:32:41.625Z,74.74
2023-03-03T07:37:43.112Z,74.69
2023-03-03T07:42:47.637Z,74.85
2023-03-03T07:48:10.965Z,74.91
2023-03-03T07:53:31.900Z,74.36
2023-03-03T07:58:41.489Z,74.67
2023-03-03T08:03:55.092Z,74.64
2023-03-03T08:09:21.052Z,74.52
2023-03-03T08:14:33.180Z,74.43
2023-03-03T08:19:34.678Z,74.27
2023-03-03T08:24:38.430Z,74.38
2023-03-03T08:29:40.398Z,74.48
2023-03-03T08:34:44.795Z,74.56
2023-03-03T08:40:46.014Z,74.51
2023-03-03T08:47:07.165Z,74.55
2023-03-03T08:53:31.590Z,74.54
2023-03-03T08:59:03.197Z,74.13
2023-03-03T09:04:07.861Z,74.43
2023-03-03T09:09:12.178Z,74.61
2023-03-03T09:14:15.971Z,74.35
2023-03-03T09:19:25.575Z,74.75
2023-03-03T09:24:38.773Z,74.56
2023-03-03T09:29:40.826Z,74.59
2023-03-03T09:34:42.902Z,74.74
2023-03-03T09:39:57.065Z,74.33
2023-03-03T09:45:04.333Z,74.25
2023-03-03T09:50:33.448Z,74.51
2023-03-03T09:55:53.367Z,74.65
2023-03-03T10:01:48.992Z,74.36
2023-03-03T10:07:26.648Z,74.25
2023-03-03T10:12:31.989Z,73.99
2023-03-03T10:17:53.486Z,73.93
2023-03-03T10:23:17.531Z,73.97
2023-03-03T10:28:53.162Z,73.83
2023-03-03T10:34:19.794Z,73.69
2023-03-03T10:39:44.839Z,73.45
2023-03-03T10:45:36.055Z,73.50
2023-03-03T10:50:56.155Z,73.31
2023-03-03T10:56:21.866Z,72.97
2023-03-03T11:01:32.486Z,72.76
2023-03-03T11:06:54.873Z,73.20
2023-03-03T11:12:17.462Z,73.18
2023-03-03T11:18:17.794Z,73.28
2023-03-03T11:23:51.988Z,72.98
2023-03-03T11:29:27.994Z,72.84
2023-03-03T11:35:16.239Z,72.46
2023-03-03T11:40:34.968Z,72.41
2023-03-03T11:45:48.987Z,72.32
2023-03-03T11:51:10.081Z,72.60
2023-03-03T11:56:34.766Z,72.25
2023-03-03T12:01:57.009Z,72.11
2023-03-03T12:07:19.458Z,72.05
2023-03-03T12:12:33.388Z,72.19
2023-03-03T12:17:58.008Z,72.45
2023-03-03T12:23:36.231Z,72.42
2023-03-03T12:29:04.936Z,72.00
2023-03-03T12:34:32.489Z,72.39
2023-03-03T12:39:52.298Z,72.52
2023-03-03T12:45:23.096Z,72.70
2023-03-03T12:50:48.802Z,72.77
2023-03-03T12:56:05.481Z,72.66
2023-03-03T13:02:02.514Z,72.82
2023-03-03T13:07:36.707Z,72.66
2023-03-03T13:13:00.827Z,72.47
2023-03-03T13:18:17.180Z,72.20
2023-03-03T13:23:33.156Z,72.05
2023-03-03T13:28:57.016Z,72.53
2023-03-03T13:34:07.852Z,72.54
2023-03-03T13:39:23.539Z,72.33
2023-03-03T13:44:37.782Z,71.96
2023-03-03T13:50:22.633Z,71.47
2023-03-03T13:56:00.096Z,71.25
2023-03-03T14:01:50.252Z,70.91
2023-03-03T14:07:26.571Z,71.17
2023-03-03T14:12:31.102Z,70.65
2023-03-03T14:17:34.010Z,70.54
2023-03-03T14:22:52.699Z,70.30
2023-03-03T14:28:17.477Z,70.12
2023-03-03T14:33:26.847Z,69.98
2023-03-03T14:38:31.702Z,69.66
2023-03-03T14:43:39.956Z,69.67
2023-03-03T14:49:02.804Z,69.56
2023-03-03T14:54:31.820Z,68.98
2023-03-03T14:59:45.903Z,69.31
2023-03-03T15:04:50.705Z,69.69
2023-03-03T15:09:58.009Z,69.87
2023-03-03T15:15:11.603Z,69.85
2023-03-03T15:20:31.905Z,69.71
2023-03-03T15:26:06.220Z,69.64
2023-03-03T15:31:34.985Z,69.92
2023-03-03T15:37:11.931Z,70.10
2023-03-03T15:42:49.222Z,70.24
2023-03-03T15:48:03.458Z,70.54
2023-03-03T15:53:37.444Z,70.75
2023-03-03T15:59:15.103Z,70.76
2023-03-03T16:04:44.534Z,70.98
2023-03-03T16:10:24.926Z,70.95
2023-03-03T16:15:52.149Z,71.13
2023-03-03T16:21:14.145Z,71.14
2023-03-03T16:26:43.543Z,71.18
2023-03-03T16:32:05.302Z,71.14
2023-03-03T16:37:23.243Z,71.06
2023-03-03T16:42:53.195Z,70.99
2023-03-03T16:48:28.910Z,71.23
2023-03-03T16:54:15.773Z,71.56
2023-03-03T16:59:44.324Z,71.69
2023-03-03T17:05:00.141Z,71.47
2023-03-03T17:10:22.468Z,71.72
2023-03-03T17:16:09.778Z,71.86
2023-03-03T17:21:55.118Z,72.28
2023-03-03T17:27:10.604Z,72.38
2023-03-03T17:32:43.576Z,72.52
2023-03-03T17:38:04.267Z,72.50
2023-03-03T17:43:17.822Z,72.49
2023-03-03T17:48:36.216Z,72.59
2023-03-03T17:54:06.407Z,72.58
2023-03-03T17:59:30.619Z,72.77
2023-03-03T18:04:48.584Z,72.84
2023-03-03T18:10:03.967Z,72.85
2023-03-03T18:15:24.460Z,73.03
2023-03-03T18:20:35.553Z,72.83
2023-03-03T18:25:57.020Z,73.06
2023-03-03T18:31:00.415Z,73.51
2023-03-03T18:36:35.793Z,73.52
2023-03-03T18:42:37.864Z,73.61
2023-03-03T18:48:03.582Z,73.57
2023-03-03T18:53:18.961Z,73.71
2023-03-03T18:58:20.676Z,74.24
2023-03-03T19:03:35.686Z,74.09
2023-03-03T19:09:17.244Z,74.24
2023-03-03T19:14:29.096Z,74.20
2023-03-03T19:19:33.828Z,74.41
2023-03-03T19:25:27.318Z,74.34
2023-03-03T19:31:54.771Z,74.73
2023-03-03T19:37:31.781Z,74.76
2023-03-03T19:42:48.869Z,74.95
2023-03-03T19:48:05.860Z,74.92
2023-03-03T19:53:31.960Z,74.98
2023-03-03T19:59:25.071Z,75.10
2023-03-03T20:05:08.070Z,74.97
2023-03-03T20:10:33.348Z,75.02
2023-03-03T20:15:56.783Z,74.82
2023-03-03T20:21:04.442Z,74.85
2023-03-03T20:26:54.476Z,74.94
2023-03-03T21:39:31.891Z,66.50
2023-03-03T21:45:35.530Z,68.70
2023-03-03T21:50:57.857Z,69.66
2023-03-03T21:55:59.888Z,70.97
2023-03-03T22:01:02.029Z,71.93
2023-03-03T22:06:04.329Z,72.36
2023-03-03T22:12:06.723Z,72.81
2023-03-03T22:18:28.481Z,73.07
2023-03-03T22:24:10.479Z,73.54
2023-03-03T22:29:13.006Z,73.77
2023-03-03T22:34:15.372Z,73.93
2023-03-03T22:40:17.156Z,73.89
2023-03-03T22:46:19.194Z,74.37
2023-03-03T22:51:41.406Z,74.58
2023-03-03T22:56:45.213Z,74.84
2023-03-03T23:01:47.761Z,75.62
2023-03-03T23:06:50.295Z,75.85
2023-03-03T23:12:52.077Z,76.00
2023-03-03T23:18:26.904Z,76.29
2023-03-03T23:23:30.659Z,76.67
2023-03-03T23:28:32.544Z,76.81
2023-03-03T23:33:35.562Z,76.89
2023-03-03T23:39:37.275Z,76.58
2023-03-03T23:45:58.902Z,77.05
2023-03-03T23:52:30.648Z,77.05
2023-03-03T23:58:52.597Z,77.17
